sensor_id;sensor_type;location;lat;lon;timestamp;temperature;humidity
16160;DHT22;8185;57.818;15.224;2022-12-31T00:00:06;4.60;99.90
16160;DHT22;8185;57.818;15.224;2022-12-31T00:02:33;4.60;99.90
16160;DHT22;8185;57.818;15.224;2022-12-31T00:05:00;4.60;99.90
16160;DHT22;8185;57.818;15.224;2022-12-31T00:07:27;4.60;99.90
16160;DHT22;8185;57.818;15.224;2022-12-31T00:09:55;4.60;99.90
16160;DHT22;8185;57.818;15.224;2022-12-31T00:12:23;4.60;99.90
16160;DHT22;8185;57.818;15.224;2022-12-31T00:14:51;4.60;99.90
16160;DHT22;8185;57.818;15.224;2022-12-31T00:17:18;4.60;99.90
16160;DHT22;8185;57.818;15.224;2022-12-31T00:19:45;4.60;99.90
16160;DHT22;8185;57.818;15.224;2022-12-31T00:22:12;4.60;99.90
16160;DHT22;8185;57.818;15.224;2022-12-31T00:24:39;4.70;99.90
16160;DHT22;8185;57.818;15.224;2022-12-31T00:27:07;4.60;99.90
16160;DHT22;8185;57.818;15.224;2022-12-31T00:29:35;4.70;99.90
16160;DHT22;8185;57.818;15.224;2022-12-31T00:32:02;4.70;99.90
16160;DHT22;8185;57.818;15.224;2022-12-31T00:34:29;4.70;99.90
16160;DHT22;8185;57.818;15.224;2022-12-31T00:36:56;4.80;99.90
16160;DHT22;8185;57.818;15.224;2022-12-31T00:39:24;4.80;99.90
16160;DHT22;8185;57.818;15.224;2022-12-31T00:41:51;4.80;99.90
16160;DHT22;8185;57.818;15.224;2022-12-31T00:44:18;4.80;99.90
16160;DHT22;8185;57.818;15.224;2022-12-31T00:46:47;4.80;99.90
16160;DHT22;8185;57.818;15.224;2022-12-31T00:49:14;4.80;99.90
16160;DHT22;8185;57.818;15.224;2022-12-31T00:51:41;4.80;99.90
16160;DHT22;8185;57.818;15.224;2022-12-31T00:54:11;4.80;99.90
16160;DHT22;8185;57.818;15.224;2022-12-31T00:56:38;4.80;99.90
16160;DHT22;8185;57.818;15.224;2022-12-31T00:59:06;4.90;99.90
16160;DHT22;8185;57.818;15.224;2022-12-31T01:01:34;4.90;99.90
16160;DHT22;8185;57.818;15.224;2022-12-31T01:04:09;4.90;99.90
16160;DHT22;8185;57.818;15.224;2022-12-31T01:06:36;4.90;99.90
16160;DHT22;8185;57.818;15.224;2022-12-31T01:09:04;5.00;99.90
16160;DHT22;8185;57.818;15.224;2022-12-31T01:11:31;5.00;99.90
16160;DHT22;8185;57.818;15.224;2022-12-31T01:14:01;5.10;99.90
16160;DHT22;8185;57.818;15.224;2022-12-31T01:16:30;5.10;99.90
16160;DHT22;8185;57.818;15.224;2022-12-31T01:18:59;5.10;99.90
16160;DHT22;8185;57.818;15.224;2022-12-31T01:21:28;5.10;99.90
16160;DHT22;8185;57.818;15.224;2022-12-31T01:23:56;5.10;99.90
16160;DHT22;8185;57.818;15.224;2022-12-31T01:26:24;5.10;99.90
16160;DHT22;8185;57.818;15.224;2022-12-31T01:28:52;5.10;99.90
16160;DHT22;8185;57.818;15.224;2022-12-31T01:31:20;5.10;99.90
16160;DHT22;8185;57.818;15.224;2022-12-31T01:33:48;5.10;99.90
16160;DHT22;8185;57.818;15.224;2022-12-31T01:36:18;5.10;99.90
16160;DHT22;8185;57.818;15.224;2022-12-31T01:38:47;5.20;99.90
16160;DHT22;8185;57.818;15.224;2022-12-31T01:41:17;5.20;99.90
16160;DHT22;8185;57.818;15.224;2022-12-31T01:43:47;5.20;99.90
16160;DHT22;8185;57.818;15.224;2022-12-31T01:46:22;5.20;99.90
16160;DHT22;8185;57.818;15.224;2022-12-31T01:48:53;5.20;99.90
16160;DHT22;8185;57.818;15.224;2022-12-31T01:51:21;5.30;99.90
16160;DHT22;8185;57.818;15.224;2022-12-31T01:53:51;5.20;99.90
16160;DHT22;8185;57.818;15.224;2022-12-31T01:56:19;5.30;99.90
16160;DHT22;8185;57.818;15.224;2022-12-31T01:58:50;5.30;99.90
16160;DHT22;8185;57.818;15.224;2022-12-31T02:01:23;5.40;99.90
16160;DHT22;8185;57.818;15.224;2022-12-31T02:03:51;5.40;99.90
16160;DHT22;8185;57.818;15.224;2022-12-31T02:06:20;5.40;99.90
16160;DHT22;8185;57.818;15.224;2022-12-31T02:08:50;5.40;99.90
16160;DHT22;8185;57.818;15.224;2022-12-31T02:11:24;5.40;99.90
16160;DHT22;8185;57.818;15.224;2022-12-31T02:13:53;5.50;99.90
16160;DHT22;8185;57.818;15.224;2022-12-31T02:16:26;5.50;99.90
16160;DHT22;8185;57.818;15.224;2022-12-31T02:19:09;5.50;99.90
16160;DHT22;8185;57.818;15.224;2022-12-31T02:21:52;5.50;99.90
16160;DHT22;8185;57.818;15.224;2022-12-31T02:27:40;5.60;99.90
16160;DHT22;8185;57.818;15.224;2022-12-31T02:30:16;5.60;99.90
16160;DHT22;8185;57.818;15.224;2022-12-31T02:33:02;5.70;99.90
16160;DHT22;8185;57.818;15.224;2022-12-31T02:35:39;5.70;99.90
16160;DHT22;8185;57.818;15.224;2022-12-31T02:38:12;5.70;99.90
16160;DHT22;8185;57.818;15.224;2022-12-31T02:40:42;5.70;99.90
16160;DHT22;8185;57.818;15.224;2022-12-31T02:43:09;5.70;99.90
16160;DHT22;8185;57.818;15.224;2022-12-31T02:45:40;5.80;99.90
16160;DHT22;8185;57.818;15.224;2022-12-31T02:48:22;5.80;99.90
16160;DHT22;8185;57.818;15.224;2022-12-31T02:50:59;5.90;99.90
16160;DHT22;8185;57.818;15.224;2022-12-31T02:53:51;5.90;99.90
16160;DHT22;8185;57.818;15.224;2022-12-31T02:56:28;5.90;99.90
16160;DHT22;8185;57.818;15.224;2022-12-31T02:59:03;6.00;99.90
16160;DHT22;8185;57.818;15.224;2022-12-31T03:02:09;6.00;99.90
16160;DHT22;8185;57.818;15.224;2022-12-31T03:04:41;6.00;99.90
16160;DHT22;8185;57.818;15.224;2022-12-31T03:07:11;6.10;99.90
16160;DHT22;8185;57.818;15.224;2022-12-31T03:09:39;6.20;99.90
16160;DHT22;8185;57.818;15.224;2022-12-31T03:12:08;6.20;99.90
16160;DHT22;8185;57.818;15.224;2022-12-31T03:14:53;6.30;99.90
16160;DHT22;8185;57.818;15.224;2022-12-31T03:17:22;6.30;99.90
16160;DHT22;8185;57.818;15.224;2022-12-31T03:19:49;6.30;99.90
16160;DHT22;8185;57.818;15.224;2022-12-31T03:22:36;6.30;99.90
16160;DHT22;8185;57.818;15.224;2022-12-31T03:25:07;6.40;99.90
16160;DHT22;8185;57.818;15.224;2022-12-31T03:27:52;6.40;99.90
16160;DHT22;8185;57.818;15.224;2022-12-31T03:30:21;6.50;99.90
16160;DHT22;8185;57.818;15.224;2022-12-31T03:32:50;6.50;99.90
16160;DHT22;8185;57.818;15.224;2022-12-31T03:35:19;6.50;99.90
16160;DHT22;8185;57.818;15.224;2022-12-31T03:37:47;6.50;99.90
16160;DHT22;8185;57.818;15.224;2022-12-31T03:40:15;6.50;99.90
16160;DHT22;8185;57.818;15.224;2022-12-31T03:42:43;6.50;99.90
16160;DHT22;8185;57.818;15.224;2022-12-31T03:45:11;6.50;99.90
16160;DHT22;8185;57.818;15.224;2022-12-31T03:47:38;6.50;99.90
16160;DHT22;8185;57.818;15.224;2022-12-31T03:50:09;6.60;99.90
16160;DHT22;8185;57.818;15.224;2022-12-31T03:52:37;6.60;99.90
16160;DHT22;8185;57.818;15.224;2022-12-31T03:55:05;6.60;99.90
16160;DHT22;8185;57.818;15.224;2022-12-31T03:57:32;6.60;99.90
16160;DHT22;8185;57.818;15.224;2022-12-31T04:00:00;6.70;99.90
16160;DHT22;8185;57.818;15.224;2022-12-31T04:02:27;6.70;99.90
16160;DHT22;8185;57.818;15.224;2022-12-31T04:04:54;6.70;99.90
16160;DHT22;8185;57.818;15.224;2022-12-31T04:07:23;6.80;99.90
16160;DHT22;8185;57.818;15.224;2022-12-31T04:09:50;6.80;99.90
16160;DHT22;8185;57.818;15.224;2022-12-31T04:12:17;6.90;99.90
16160;DHT22;8185;57.818;15.224;2022-12-31T04:14:44;6.80;99.90
16160;DHT22;8185;57.818;15.224;2022-12-31T04:17:12;6.80;99.90
16160;DHT22;8185;57.818;15.224;2022-12-31T04:19:39;6.90;99.90
16160;DHT22;8185;57.818;15.224;2022-12-31T04:22:07;6.80;99.90
16160;DHT22;8185;57.818;15.224;2022-12-31T04:24:35;6.90;99.90
16160;DHT22;8185;57.818;15.224;2022-12-31T04:27:03;7.00;99.90
16160;DHT22;8185;57.818;15.224;2022-12-31T04:29:30;6.90;99.90
16160;DHT22;8185;57.818;15.224;2022-12-31T04:31:57;6.90;99.90
16160;DHT22;8185;57.818;15.224;2022-12-31T04:34:24;6.80;99.90
16160;DHT22;8185;57.818;15.224;2022-12-31T04:36:51;6.80;99.90
16160;DHT22;8185;57.818;15.224;2022-12-31T04:39:19;6.80;99.90
16160;DHT22;8185;57.818;15.224;2022-12-31T04:41:47;6.90;99.90
16160;DHT22;8185;57.818;15.224;2022-12-31T04:44:14;6.90;99.90
16160;DHT22;8185;57.818;15.224;2022-12-31T04:46:42;6.80;99.90
16160;DHT22;8185;57.818;15.224;2022-12-31T04:49:09;6.90;99.90
16160;DHT22;8185;57.818;15.224;2022-12-31T04:51:36;6.90;99.90
16160;DHT22;8185;57.818;15.224;2022-12-31T04:54:04;6.90;99.90
16160;DHT22;8185;57.818;15.224;2022-12-31T04:56:32;7.00;99.90
16160;DHT22;8185;57.818;15.224;2022-12-31T04:59:02;7.00;99.90
16160;DHT22;8185;57.818;15.224;2022-12-31T05:01:30;7.00;99.90
16160;DHT22;8185;57.818;15.224;2022-12-31T05:03:57;6.90;99.90
16160;DHT22;8185;57.818;15.224;2022-12-31T05:06:25;6.90;99.90
16160;DHT22;8185;57.818;15.224;2022-12-31T05:08:52;6.90;99.90
16160;DHT22;8185;57.818;15.224;2022-12-31T05:11:19;6.80;99.90
16160;DHT22;8185;57.818;15.224;2022-12-31T05:13:46;6.90;99.90
16160;DHT22;8185;57.818;15.224;2022-12-31T05:16:15;6.80;99.90
16160;DHT22;8185;57.818;15.224;2022-12-31T05:18:42;6.80;99.90
16160;DHT22;8185;57.818;15.224;2022-12-31T05:21:17;6.80;99.90
16160;DHT22;8185;57.818;15.224;2022-12-31T05:23:44;6.80;99.90
16160;DHT22;8185;57.818;15.224;2022-12-31T05:26:12;6.80;99.90
16160;DHT22;8185;57.818;15.224;2022-12-31T05:28:39;7.00;99.90
16160;DHT22;8185;57.818;15.224;2022-12-31T05:31:06;7.00;99.90
16160;DHT22;8185;57.818;15.224;2022-12-31T05:33:35;6.90;99.90
16160;DHT22;8185;57.818;15.224;2022-12-31T05:36:02;6.90;99.90
16160;DHT22;8185;57.818;15.224;2022-12-31T05:38:30;6.90;99.90
16160;DHT22;8185;57.818;15.224;2022-12-31T05:41:01;6.90;99.90
16160;DHT22;8185;57.818;15.224;2022-12-31T05:43:28;6.90;99.90
16160;DHT22;8185;57.818;15.224;2022-12-31T05:45:56;6.90;99.90
16160;DHT22;8185;57.818;15.224;2022-12-31T05:48:25;6.90;99.90
16160;DHT22;8185;57.818;15.224;2022-12-31T05:50:54;6.90;99.90
16160;DHT22;8185;57.818;15.224;2022-12-31T05:53:21;6.90;99.90
16160;DHT22;8185;57.818;15.224;2022-12-31T05:55:48;6.80;99.90
16160;DHT22;8185;57.818;15.224;2022-12-31T05:58:15;6.80;99.90
16160;DHT22;8185;57.818;15.224;2022-12-31T06:00:43;6.80;99.90
16160;DHT22;8185;57.818;15.224;2022-12-31T06:03:10;6.80;99.90
16160;DHT22;8185;57.818;15.224;2022-12-31T06:05:41;6.80;99.90
16160;DHT22;8185;57.818;15.224;2022-12-31T06:08:10;6.80;99.90
16160;DHT22;8185;57.818;15.224;2022-12-31T06:10:38;6.90;99.90
16160;DHT22;8185;57.818;15.224;2022-12-31T06:13:06;6.80;99.90
16160;DHT22;8185;57.818;15.224;2022-12-31T06:15:36;6.90;99.90
16160;DHT22;8185;57.818;15.224;2022-12-31T06:18:03;6.90;99.90
16160;DHT22;8185;57.818;15.224;2022-12-31T06:20:31;6.90;99.90
16160;DHT22;8185;57.818;15.224;2022-12-31T06:22:58;6.90;99.90
16160;DHT22;8185;57.818;15.224;2022-12-31T06:25:27;6.90;99.90
16160;DHT22;8185;57.818;15.224;2022-12-31T06:27:54;6.90;99.90
16160;DHT22;8185;57.818;15.224;2022-12-31T06:30:21;6.90;99.90
16160;DHT22;8185;57.818;15.224;2022-12-31T06:32:48;7.00;99.90
16160;DHT22;8185;57.818;15.224;2022-12-31T06:35:16;7.00;99.90
16160;DHT22;8185;57.818;15.224;2022-12-31T06:37:43;7.00;99.90
16160;DHT22;8185;57.818;15.224;2022-12-31T06:40:10;7.00;99.90
16160;DHT22;8185;57.818;15.224;2022-12-31T06:42:39;7.10;99.90
16160;DHT22;8185;57.818;15.224;2022-12-31T06:45:07;7.10;99.90
16160;DHT22;8185;57.818;15.224;2022-12-31T06:47:35;7.10;99.90
16160;DHT22;8185;57.818;15.224;2022-12-31T06:50:02;7.10;99.90
16160;DHT22;8185;57.818;15.224;2022-12-31T06:52:29;7.10;99.90
16160;DHT22;8185;57.818;15.224;2022-12-31T06:54:57;7.00;99.90
16160;DHT22;8185;57.818;15.224;2022-12-31T06:57:25;7.10;99.90
16160;DHT22;8185;57.818;15.224;2022-12-31T06:59:54;7.20;99.90
16160;DHT22;8185;57.818;15.224;2022-12-31T07:02:41;7.20;99.90
16160;DHT22;8185;57.818;15.224;2022-12-31T07:05:27;7.20;99.90
16160;DHT22;8185;57.818;15.224;2022-12-31T07:08:07;7.10;99.90
16160;DHT22;8185;57.818;15.224;2022-12-31T07:10:44;7.20;99.90
16160;DHT22;8185;57.818;15.224;2022-12-31T07:16:12;7.20;99.90
16160;DHT22;8185;57.818;15.224;2022-12-31T07:18:46;7.10;99.90
16160;DHT22;8185;57.818;15.224;2022-12-31T07:21:16;7.10;99.90
16160;DHT22;8185;57.818;15.224;2022-12-31T07:23:44;7.10;99.90
16160;DHT22;8185;57.818;15.224;2022-12-31T07:26:19;7.10;99.90
16160;DHT22;8185;57.818;15.224;2022-12-31T07:28:57;7.00;99.90
16160;DHT22;8185;57.818;15.224;2022-12-31T07:31:35;7.00;99.90
16160;DHT22;8185;57.818;15.224;2022-12-31T07:34:17;7.00;99.90
16160;DHT22;8185;57.818;15.224;2022-12-31T07:36:55;7.00;99.90
16160;DHT22;8185;57.818;15.224;2022-12-31T07:39:30;7.00;99.90
16160;DHT22;8185;57.818;15.224;2022-12-31T07:42:08;6.90;99.90
16160;DHT22;8185;57.818;15.224;2022-12-31T07:44:49;7.00;99.90
16160;DHT22;8185;57.818;15.224;2022-12-31T07:47:22;7.00;99.90
16160;DHT22;8185;57.818;15.224;2022-12-31T07:49:50;7.00;99.90
16160;DHT22;8185;57.818;15.224;2022-12-31T07:52:18;7.10;99.90
16160;DHT22;8185;57.818;15.224;2022-12-31T07:54:46;7.10;99.90
16160;DHT22;8185;57.818;15.224;2022-12-31T07:57:14;7.20;99.90
16160;DHT22;8185;57.818;15.224;2022-12-31T07:59:54;7.10;99.90
16160;DHT22;8185;57.818;15.224;2022-12-31T08:02:56;7.20;99.90
16160;DHT22;8185;57.818;15.224;2022-12-31T08:05:31;7.20;99.90
16160;DHT22;8185;57.818;15.224;2022-12-31T08:08:06;7.20;99.90
16160;DHT22;8185;57.818;15.224;2022-12-31T08:10:40;7.30;99.90
16160;DHT22;8185;57.818;15.224;2022-12-31T08:13:10;7.20;99.90
16160;DHT22;8185;57.818;15.224;2022-12-31T08:15:39;7.30;99.90
16160;DHT22;8185;57.818;15.224;2022-12-31T08:18:08;7.30;99.90
16160;DHT22;8185;57.818;15.224;2022-12-31T08:20:42;7.40;99.90
16160;DHT22;8185;57.818;15.224;2022-12-31T08:23:20;7.40;99.90
16160;DHT22;8185;57.818;15.224;2022-12-31T08:26:02;7.40;99.90
16160;DHT22;8185;57.818;15.224;2022-12-31T08:28:55;7.50;99.90
16160;DHT22;8185;57.818;15.224;2022-12-31T08:31:30;7.50;99.90
16160;DHT22;8185;57.818;15.224;2022-12-31T08:34:07;7.50;99.90
16160;DHT22;8185;57.818;15.224;2022-12-31T08:36:43;7.50;99.90
16160;DHT22;8185;57.818;15.224;2022-12-31T08:39:19;7.40;99.90
16160;DHT22;8185;57.818;15.224;2022-12-31T08:41:53;7.40;99.90
16160;DHT22;8185;57.818;15.224;2022-12-31T08:44:26;7.50;99.90
16160;DHT22;8185;57.818;15.224;2022-12-31T08:46:58;7.40;99.90
16160;DHT22;8185;57.818;15.224;2022-12-31T08:49:34;7.50;99.90
16160;DHT22;8185;57.818;15.224;2022-12-31T08:52:02;7.50;99.90
16160;DHT22;8185;57.818;15.224;2022-12-31T08:54:30;7.50;99.90
16160;DHT22;8185;57.818;15.224;2022-12-31T08:57:02;7.50;99.90
16160;DHT22;8185;57.818;15.224;2022-12-31T08:59:39;7.50;99.90
16160;DHT22;8185;57.818;15.224;2022-12-31T09:02:24;7.50;99.90
16160;DHT22;8185;57.818;15.224;2022-12-31T09:05:00;7.50;99.90
16160;DHT22;8185;57.818;15.224;2022-12-31T09:07:34;7.50;99.90
16160;DHT22;8185;57.818;15.224;2022-12-31T09:10:15;7.60;99.90
16160;DHT22;8185;57.818;15.224;2022-12-31T09:12:52;7.60;99.90
16160;DHT22;8185;57.818;15.224;2022-12-31T09:15:26;7.60;99.90
16160;DHT22;8185;57.818;15.224;2022-12-31T09:17:56;7.60;99.90
16160;DHT22;8185;57.818;15.224;2022-12-31T09:20:27;7.60;99.90
16160;DHT22;8185;57.818;15.224;2022-12-31T09:22:56;7.60;99.90
16160;DHT22;8185;57.818;15.224;2022-12-31T09:25:24;7.60;99.90
16160;DHT22;8185;57.818;15.224;2022-12-31T09:28:10;7.60;99.90
16160;DHT22;8185;57.818;15.224;2022-12-31T09:30:45;7.60;99.90
16160;DHT22;8185;57.818;15.224;2022-12-31T09:33:24;7.60;99.90
16160;DHT22;8185;57.818;15.224;2022-12-31T09:35:57;7.60;99.90
16160;DHT22;8185;57.818;15.224;2022-12-31T09:38:29;7.60;99.90
16160;DHT22;8185;57.818;15.224;2022-12-31T09:47:29;7.60;99.90
16160;DHT22;8185;57.818;15.224;2022-12-31T09:50:20;7.60;99.90
16160;DHT22;8185;57.818;15.224;2022-12-31T09:55:56;7.70;99.90
16160;DHT22;8185;57.818;15.224;2022-12-31T09:58:37;7.60;99.90
16160;DHT22;8185;57.818;15.224;2022-12-31T10:01:17;7.60;99.90
16160;DHT22;8185;57.818;15.224;2022-12-31T10:04:10;7.60;99.90
16160;DHT22;8185;57.818;15.224;2022-12-31T10:06:48;7.70;99.90
16160;DHT22;8185;57.818;15.224;2022-12-31T10:09:37;7.70;99.90
16160;DHT22;8185;57.818;15.224;2022-12-31T10:12:26;7.80;99.90
16160;DHT22;8185;57.818;15.224;2022-12-31T10:15:13;7.80;99.90
16160;DHT22;8185;57.818;15.224;2022-12-31T10:17:53;7.90;99.90
16160;DHT22;8185;57.818;15.224;2022-12-31T10:20:45;7.80;99.90
16160;DHT22;8185;57.818;15.224;2022-12-31T10:23:46;7.80;99.90
16160;DHT22;8185;57.818;15.224;2022-12-31T10:26:26;7.80;99.90
16160;DHT22;8185;57.818;15.224;2022-12-31T10:29:01;7.80;99.90
16160;DHT22;8185;57.818;15.224;2022-12-31T10:31:39;7.80;99.90
16160;DHT22;8185;57.818;15.224;2022-12-31T10:34:15;7.80;99.90
16160;DHT22;8185;57.818;15.224;2022-12-31T10:36:52;7.80;99.90
16160;DHT22;8185;57.818;15.224;2022-12-31T10:39:26;7.80;99.90
16160;DHT22;8185;57.818;15.224;2022-12-31T10:42:33;7.90;99.90
16160;DHT22;8185;57.818;15.224;2022-12-31T10:57:48;8.00;99.90
16160;DHT22;8185;57.818;15.224;2022-12-31T11:00:19;8.00;99.90
16160;DHT22;8185;57.818;15.224;2022-12-31T11:09:16;8.00;99.90
16160;DHT22;8185;57.818;15.224;2022-12-31T11:11:54;7.90;99.90
16160;DHT22;8185;57.818;15.224;2022-12-31T11:14:46;7.90;99.90
16160;DHT22;8185;57.818;15.224;2022-12-31T11:17:24;7.80;99.90
16160;DHT22;8185;57.818;15.224;2022-12-31T11:20:06;7.90;99.90
16160;DHT22;8185;57.818;15.224;2022-12-31T11:22:49;7.80;99.90
16160;DHT22;8185;57.818;15.224;2022-12-31T11:25:33;7.80;99.90
16160;DHT22;8185;57.818;15.224;2022-12-31T11:28:11;7.80;99.90
16160;DHT22;8185;57.818;15.224;2022-12-31T11:30:56;7.80;99.90
16160;DHT22;8185;57.818;15.224;2022-12-31T11:33:46;7.90;99.90
16160;DHT22;8185;57.818;15.224;2022-12-31T11:36:21;8.00;99.90
16160;DHT22;8185;57.818;15.224;2022-12-31T11:38:52;8.00;99.90
16160;DHT22;8185;57.818;15.224;2022-12-31T11:41:25;8.00;99.90
16160;DHT22;8185;57.818;15.224;2022-12-31T11:44:02;8.10;99.90
16160;DHT22;8185;57.818;15.224;2022-12-31T11:46:53;8.00;99.90
16160;DHT22;8185;57.818;15.224;2022-12-31T11:49:44;8.10;99.90
16160;DHT22;8185;57.818;15.224;2022-12-31T11:52:25;8.10;99.90
16160;DHT22;8185;57.818;15.224;2022-12-31T11:57:49;8.20;99.90
16160;DHT22;8185;57.818;15.224;2022-12-31T12:00:19;8.30;99.90
16160;DHT22;8185;57.818;15.224;2022-12-31T12:02:50;8.30;99.90
16160;DHT22;8185;57.818;15.224;2022-12-31T12:05:20;8.30;99.90
16160;DHT22;8185;57.818;15.224;2022-12-31T12:07:48;8.30;99.90
16160;DHT22;8185;57.818;15.224;2022-12-31T12:10:21;8.20;99.90
16160;DHT22;8185;57.818;15.224;2022-12-31T12:12:50;8.10;99.90
16160;DHT22;8185;57.818;15.224;2022-12-31T12:15:21;8.10;99.90
16160;DHT22;8185;57.818;15.224;2022-12-31T12:17:52;8.10;99.90
16160;DHT22;8185;57.818;15.224;2022-12-31T12:20:27;8.10;99.90
16160;DHT22;8185;57.818;15.224;2022-12-31T12:22:56;8.00;99.90
16160;DHT22;8185;57.818;15.224;2022-12-31T12:25:25;8.00;99.90
16160;DHT22;8185;57.818;15.224;2022-12-31T12:27:53;8.00;99.90
16160;DHT22;8185;57.818;15.224;2022-12-31T12:30:23;8.00;99.90
16160;DHT22;8185;57.818;15.224;2022-12-31T12:32:54;7.90;99.90
16160;DHT22;8185;57.818;15.224;2022-12-31T12:35:27;7.90;99.90
16160;DHT22;8185;57.818;15.224;2022-12-31T12:37:59;7.90;99.90
16160;DHT22;8185;57.818;15.224;2022-12-31T12:40:27;7.90;99.90
16160;DHT22;8185;57.818;15.224;2022-12-31T12:42:55;7.90;99.90
16160;DHT22;8185;57.818;15.224;2022-12-31T12:45:23;7.80;99.90
16160;DHT22;8185;57.818;15.224;2022-12-31T12:47:55;7.80;99.90
16160;DHT22;8185;57.818;15.224;2022-12-31T12:50:25;7.80;99.90
16160;DHT22;8185;57.818;15.224;2022-12-31T12:53:06;7.80;99.90
16160;DHT22;8185;57.818;15.224;2022-12-31T12:55:42;7.80;99.90
16160;DHT22;8185;57.818;15.224;2022-12-31T12:58:21;7.80;99.90
16160;DHT22;8185;57.818;15.224;2022-12-31T13:00:58;7.70;99.90
16160;DHT22;8185;57.818;15.224;2022-12-31T13:06:57;7.70;99.90
16160;DHT22;8185;57.818;15.224;2022-12-31T13:09:37;7.70;99.90
16160;DHT22;8185;57.818;15.224;2022-12-31T13:12:15;7.70;99.90
16160;DHT22;8185;57.818;15.224;2022-12-31T13:14:51;7.70;99.90
16160;DHT22;8185;57.818;15.224;2022-12-31T13:17:33;7.70;99.90
16160;DHT22;8185;57.818;15.224;2022-12-31T13:20:09;7.70;99.90
16160;DHT22;8185;57.818;15.224;2022-12-31T13:22:42;7.60;99.90
16160;DHT22;8185;57.818;15.224;2022-12-31T13:25:23;7.70;99.90
16160;DHT22;8185;57.818;15.224;2022-12-31T13:27:56;7.70;99.90
16160;DHT22;8185;57.818;15.224;2022-12-31T13:30:27;7.70;99.90
16160;DHT22;8185;57.818;15.224;2022-12-31T13:33:00;7.60;99.90
16160;DHT22;8185;57.818;15.224;2022-12-31T13:35:33;7.60;99.90
16160;DHT22;8185;57.818;15.224;2022-12-31T13:38:05;7.60;99.90
16160;DHT22;8185;57.818;15.224;2022-12-31T13:40:43;7.50;99.90
16160;DHT22;8185;57.818;15.224;2022-12-31T13:43:17;7.40;99.90
16160;DHT22;8185;57.818;15.224;2022-12-31T13:46:07;7.40;99.90
16160;DHT22;8185;57.818;15.224;2022-12-31T13:48:41;7.40;99.90
16160;DHT22;8185;57.818;15.224;2022-12-31T13:51:17;7.30;99.90
16160;DHT22;8185;57.818;15.224;2022-12-31T13:53:52;7.30;99.90
16160;DHT22;8185;57.818;15.224;2022-12-31T13:56:26;7.20;99.90
16160;DHT22;8185;57.818;15.224;2022-12-31T13:59:00;7.20;99.90
16160;DHT22;8185;57.818;15.224;2022-12-31T14:01:35;7.20;99.90
16160;DHT22;8185;57.818;15.224;2022-12-31T14:04:08;7.10;99.90
16160;DHT22;8185;57.818;15.224;2022-12-31T14:06:45;7.20;99.90
16160;DHT22;8185;57.818;15.224;2022-12-31T14:09:19;7.10;99.90
16160;DHT22;8185;57.818;15.224;2022-12-31T14:12:03;7.10;99.90
16160;DHT22;8185;57.818;15.224;2022-12-31T14:14:39;7.10;99.90
16160;DHT22;8185;57.818;15.224;2022-12-31T14:17:18;7.10;99.90
16160;DHT22;8185;57.818;15.224;2022-12-31T14:19:58;7.10;99.90
16160;DHT22;8185;57.818;15.224;2022-12-31T14:22:33;7.20;99.90
16160;DHT22;8185;57.818;15.224;2022-12-31T14:25:03;7.10;99.90
16160;DHT22;8185;57.818;15.224;2022-12-31T14:27:35;7.10;99.90
16160;DHT22;8185;57.818;15.224;2022-12-31T14:30:05;7.10;99.90
16160;DHT22;8185;57.818;15.224;2022-12-31T14:32:45;7.10;99.90
16160;DHT22;8185;57.818;15.224;2022-12-31T14:35:27;7.20;99.90
16160;DHT22;8185;57.818;15.224;2022-12-31T14:38:04;7.20;99.90
16160;DHT22;8185;57.818;15.224;2022-12-31T14:40:44;7.30;99.90
16160;DHT22;8185;57.818;15.224;2022-12-31T14:43:20;7.30;99.90
16160;DHT22;8185;57.818;15.224;2022-12-31T14:45:59;7.20;99.90
16160;DHT22;8185;57.818;15.224;2022-12-31T14:48:39;7.20;99.90
16160;DHT22;8185;57.818;15.224;2022-12-31T14:51:09;7.30;99.90
16160;DHT22;8185;57.818;15.224;2022-12-31T14:53:38;7.30;99.90
16160;DHT22;8185;57.818;15.224;2022-12-31T14:56:24;7.30;99.90
16160;DHT22;8185;57.818;15.224;2022-12-31T14:58:55;7.30;99.90
16160;DHT22;8185;57.818;15.224;2022-12-31T15:01:22;7.20;99.90
16160;DHT22;8185;57.818;15.224;2022-12-31T15:03:51;7.20;99.90
16160;DHT22;8185;57.818;15.224;2022-12-31T15:06:47;7.20;99.90
16160;DHT22;8185;57.818;15.224;2022-12-31T15:09:55;7.20;99.90
16160;DHT22;8185;57.818;15.224;2022-12-31T15:12:43;7.20;99.90
16160;DHT22;8185;57.818;15.224;2022-12-31T15:15:30;7.10;99.90
16160;DHT22;8185;57.818;15.224;2022-12-31T15:18:10;7.10;99.90
16160;DHT22;8185;57.818;15.224;2022-12-31T15:21:09;7.20;99.90
16160;DHT22;8185;57.818;15.224;2022-12-31T15:23:40;7.20;99.90
16160;DHT22;8185;57.818;15.224;2022-12-31T15:26:20;7.10;99.90
16160;DHT22;8185;57.818;15.224;2022-12-31T15:28:57;7.00;99.90
16160;DHT22;8185;57.818;15.224;2022-12-31T15:31:25;7.00;99.90
16160;DHT22;8185;57.818;15.224;2022-12-31T15:33:56;7.00;99.90
16160;DHT22;8185;57.818;15.224;2022-12-31T15:36:25;7.10;99.90
16160;DHT22;8185;57.818;15.224;2022-12-31T15:39:05;7.10;99.90
16160;DHT22;8185;57.818;15.224;2022-12-31T15:41:39;7.00;99.90
16160;DHT22;8185;57.818;15.224;2022-12-31T15:44:13;7.10;99.90
16160;DHT22;8185;57.818;15.224;2022-12-31T15:46:44;7.10;99.90
16160;DHT22;8185;57.818;15.224;2022-12-31T15:49:17;7.00;99.90
16160;DHT22;8185;57.818;15.224;2022-12-31T15:51:47;7.00;99.90
16160;DHT22;8185;57.818;15.224;2022-12-31T15:54:22;7.00;99.90
16160;DHT22;8185;57.818;15.224;2022-12-31T15:56:52;7.00;99.90
16160;DHT22;8185;57.818;15.224;2022-12-31T15:59:20;7.00;99.90
16160;DHT22;8185;57.818;15.224;2022-12-31T16:01:52;7.00;99.90
16160;DHT22;8185;57.818;15.224;2022-12-31T16:04:22;7.00;99.90
16160;DHT22;8185;57.818;15.224;2022-12-31T16:06:50;7.00;99.90
16160;DHT22;8185;57.818;15.224;2022-12-31T16:09:21;7.00;99.90
16160;DHT22;8185;57.818;15.224;2022-12-31T16:11:51;6.90;99.90
16160;DHT22;8185;57.818;15.224;2022-12-31T16:14:22;7.00;99.90
16160;DHT22;8185;57.818;15.224;2022-12-31T16:16:54;6.90;99.90
16160;DHT22;8185;57.818;15.224;2022-12-31T16:19:33;6.90;99.90
16160;DHT22;8185;57.818;15.224;2022-12-31T16:22:06;6.90;99.90
16160;DHT22;8185;57.818;15.224;2022-12-31T16:24:34;6.90;99.90
16160;DHT22;8185;57.818;15.224;2022-12-31T16:27:06;6.80;99.90
16160;DHT22;8185;57.818;15.224;2022-12-31T16:29:35;6.80;99.90
16160;DHT22;8185;57.818;15.224;2022-12-31T16:32:03;6.80;99.90
16160;DHT22;8185;57.818;15.224;2022-12-31T16:34:35;6.70;99.90
16160;DHT22;8185;57.818;15.224;2022-12-31T16:37:04;6.60;99.90
16160;DHT22;8185;57.818;15.224;2022-12-31T16:39:34;6.60;99.90
16160;DHT22;8185;57.818;15.224;2022-12-31T16:42:17;6.50;99.90
16160;DHT22;8185;57.818;15.224;2022-12-31T16:44:45;6.50;99.90
16160;DHT22;8185;57.818;15.224;2022-12-31T16:47:18;6.50;99.90
16160;DHT22;8185;57.818;15.224;2022-12-31T16:49:48;6.40;99.90
16160;DHT22;8185;57.818;15.224;2022-12-31T16:52:26;6.40;99.90
16160;DHT22;8185;57.818;15.224;2022-12-31T16:54:56;6.40;99.90
16160;DHT22;8185;57.818;15.224;2022-12-31T16:57:28;6.30;99.90
16160;DHT22;8185;57.818;15.224;2022-12-31T16:59:58;6.30;99.90
16160;DHT22;8185;57.818;15.224;2022-12-31T17:02:31;6.30;99.90